Mercyville, Missouri
Current Conditions -  °F | °C
As of 11:55 PM on Monday 26 Jan 2015 (Local Time) from KIRK Reporting Station
Clear Clear  
Wind Chill: 31°   Ceiling: Unl
Heat Index: 36°   Visibility: 10mi
Dew Point: 33°   Wind: 6mph
Humidity: 89%   Direction: 290°WNW
Pressure: 29.97"   Gusts: NA
Location:  39.9225°N, 92.6337°W
Report Text: KIRK 270555Z AUTO 29005KT 10SM CLR 02/01 A2997 RMK AO2 SLP159 T00220006 10078 20022 401111017 53011
Loading
Personal Weather Stations






























Interactive Weather Map New forecast layout! Learn more

10-Day Weather Forecast

Advertisements
Track Severe Weather on mobile